Archival Weather

Chicago O'Hare International

Chicago, Illinois (KORD)

Report from: Thursday, April 13, 2023 8:51 AM CDT
Current time: Sunday, February 25, 2024 2:42 PM CST

Current weather – Weather history – Daily summaries
Weather forecast

Temperature18.3°C (64.9°F)
Dew point5.0°C (41.0°F)
Winds 7 kts (3.6 m/s, 8.1 mph) South-Southwest (210°)
Visibility10 mi. (16.1 km)
Clouds Ceiling: Broken clouds 30,000 ft. (9,144 m)
Altimeter29.92 in.Hg (1013 mB)
Relative humidity42 %
Density altitude528 ft. (161 m)
Sea-level pressure101.3 kPa (1013 mB, 29.91 in.Hg)
Remarks Automated weather observing station with precipitation discriminator
Flight conditions Visual Meteorological Conditions
Raw dataKORD 131351Z 21007KT 10SM BKN300 18/05 A2992 RMK AO2 SLP129 T01830050
An error has occurred. This application may no longer respond until reloaded. Reload 🗙